Latest Weather Observations for Geraldton Airport

IDW60801

Issued at 3:43 pm WST Wednesday 10 August 2022 (issued every 10 minutes, with the page automatically refreshed every 10 minutes)

About weather observations | Map of weather stations | Latest weather observations for WA | Other Formats
Station Details ID: 008315 Name: GERALDTON AIRPORT Lat: -28.80 Lon: 114.70 Height: 29.7 m
Data from the previous 72 hours. | See also: Recent months at Geraldton Airport
Date/Time
WST
Temp
°C
App
Temp
°C
Dew
Point
°C
Rel
Hum
%
Delta-T
°C
Wind Press
QNH
hPa
Press
MSL
hPa
Rain since
9am
mm
Dir  Spd
km/h
Gust
km/h
Spd
kts
Gust
kts
10/03:30pm 16.8 12.4 9.0 60 4.0 SSE 22 30 12 16 1022.8 1022.7 0.0
10/03:00pm 16.9 12.4 8.6 58 4.2 SSE 22 32 12 17 1022.9 1022.8 0.0
10/02:30pm 17.0 13.1 9.4 61 4.0 SSE 20 26 11 14 1022.9 1022.8 0.0
10/02:00pm 16.8 13.0 9.7 63 3.7 SSE 20 30 11 16 1023.1 1023.0 0.0
10/01:30pm 16.6 12.9 10.0 65 3.5 SSE 20 28 11 15 1023.3 1023.2 0.0
10/01:00pm 15.8 12.5 9.7 67 3.2 SE 17 28 9 15 1023.7 1023.6 0.0
10/12:30pm 16.1 13.0 8.8 62 3.7 SE 15 22 8 12 1024.0 1023.9 0.0
10/12:00pm 16.6 13.7 9.5 63 3.7 SE 15 19 8 10 1024.2 1024.1 0.0
10/11:30am 16.3 13.6 10.2 67 3.2 SSE 15 24 8 13 1024.5 1024.4 0.0
10/11:00am 15.9 14.0 9.1 64 3.5 ESE 9 15 5 8 1024.9 1024.8 0.0
10/10:30am 15.6 13.8 9.5 67 3.2 ESE 9 13 5 7 1025.0 1024.9 0.0
10/10:00am 15.4 14.4 12.2 81 1.7 NE 9 15 5 8 1025.0 1024.9 0.0
10/09:30am 13.6 12.4 11.7 88 1.0 NNE 9 11 5 6 1024.9 1024.8 0.0
10/09:00am 12.3 10.5 10.7 90 0.8 NNE 11 15 6 8 1024.6 1024.5 2.2
10/08:30am 11.4 9.1 10.5 94 0.5 NNE 13 19 7 10 1024.2 1024.1 2.2
10/08:00am 10.3 8.1 9.4 94 0.4 NE 11 17 6 9 1023.9 1023.8 2.2
10/07:30am 9.6 7.6 8.8 95 0.4 NE 9 13 5 7 1023.5 1023.4 2.2
10/07:00am 9.0 6.5 8.2 95 0.4 NNE 11 15 6 8 1023.1 1023.0 2.2
10/06:30am 9.3 7.3 8.5 95 0.4 NNE 9 15 5 8 1022.9 1022.8 2.2
10/06:00am 9.0 6.1 8.2 95 0.4 NNE 13 17 7 9 1022.3 1022.2 2.2
10/05:30am 9.7 7.4 8.9 95 0.4 NNE 11 15 6 8 1022.2 1022.1 2.2
10/05:00am 9.4 6.6 8.6 95 0.4 NNE 13 17 7 9 1021.9 1021.8 2.2
10/04:54am 9.4 6.6 8.6 95 0.4 NNE 13 19 7 10 1021.9 1021.8 2.2
10/04:30am 9.7 7.4 8.9 95 0.4 NNE 11 13 6 7 1022.0 1021.9 2.0
10/04:23am 9.6 7.6 8.8 95 0.4 NNE 9 13 5 7 1022.0 1021.9 2.0
10/04:00am 9.1 6.2 8.2 94 0.4 NNE 13 15 7 8 1021.6 1021.5 2.0
10/03:47am 9.4 6.6 8.5 94 0.4 NE 13 15 7 8 1021.6 1021.5 1.8
10/03:30am 9.9 7.2 9.0 94 0.4 NE 13 15 7 8 1021.7 1021.6 1.8
10/03:23am 9.9 8.0 9.0 94 0.4 NNE 9 13 5 7 1021.8 1021.7 1.8
10/03:00am 9.7 7.0 8.8 94 0.4 NE 13 15 7 8 1021.6 1021.5 1.6
10/02:30am 10.0 8.1 8.9 93 0.5 NE 9 13 5 7 1021.4 1021.3 1.6
10/02:08am 10.0 7.6 8.8 92 0.6 NE 11 17 6 9 1021.4 1021.3 1.6
10/02:00am 10.2 7.1 9.0 92 0.6 ENE 15 19 8 10 1021.3 1021.2 1.6
10/01:48am 10.3 7.6 9.1 92 0.6 ENE 13 17 7 9 1021.5 1021.4 1.4
10/01:30am 10.7 8.1 9.3 91 0.7 NNE 13 17 7 9 1020.9 1020.9 1.4
10/01:18am 10.6 8.0 9.2 91 0.7 NNE 13 17 7 9 1020.8 1020.8 1.4
10/01:00am 10.5 7.8 8.9 90 0.8 NNE 13 17 7 9 1021.2 1021.1 1.4
10/12:59am 10.5 7.8 8.9 90 0.8 NNE 13 17 7 9 1021.1 1021.0 1.2
10/12:30am 10.1 7.9 7.9 86 1.1 NE 9 13 5 7 1020.7 1020.7 0.6
10/12:00am 11.5 8.2 8.2 80 1.6 SE 15 19 8 10 1020.8 1020.8 0.6
 
Date/Time
WST
Temp
°C
App
Temp
°C
Dew
Point
°C
Rel
Hum
%
Delta-T
°C
Wind Press
QNH
hPa
Press
MSL
hPa
Rain since
9am
mm
Dir  Spd
km/h
Gust
km/h
Spd
kts
Gust
kts
09/11:30pm 12.7 9.4 8.0 73 2.3 SSW 15 19 8 10 1020.5 1020.5 0.6
09/11:00pm 13.0 8.7 7.7 70 2.6 SSW 20 30 11 16 1020.8 1020.8 0.6
09/10:30pm 13.2 8.8 7.6 69 2.7 SSW 20 26 11 14 1020.8 1020.8 0.6
09/10:00pm 12.5 8.6 7.2 70 2.6 SSW 17 20 9 11 1020.8 1020.8 0.6
09/09:30pm 13.0 8.7 7.2 68 2.8 SSW 19 26 10 14 1020.7 1020.7 0.6
09/09:00pm 13.1 8.6 6.9 66 3.0 SSW 20 26 11 14 1020.6 1020.6 0.6
09/08:30pm 13.5 8.7 7.3 66 3.0 SSW 22 33 12 18 1020.3 1020.3 0.6
09/08:00pm 12.4 9.3 7.3 71 2.5 SSW 13 20 7 11 1019.8 1019.8 0.6
09/07:30pm 12.9 8.3 6.3 64 3.1 SSW 20 30 11 16 1019.7 1019.7 0.6
09/07:00pm 13.7 8.8 8.3 70 2.7 SSW 24 37 13 20 1019.2 1019.2 0.6
09/06:30pm 13.3 9.8 7.3 67 2.9 SSW 15 20 8 11 1018.9 1018.9 0.6
09/06:00pm 13.6 9.2 7.2 65 3.1 SSW 20 24 11 13 1018.7 1018.7 0.6
09/05:30pm 14.1 9.7 7.2 63 3.4 SSW 20 28 11 15 1018.4 1018.4 0.6
09/05:00pm 14.2 9.9 7.7 65 3.2 SW 20 28 11 15 1018.2 1018.2 0.6
09/04:30pm 14.9 9.9 7.9 63 3.5 SW 24 39 13 21 1017.9 1017.9 0.6
09/04:00pm 14.6 9.3 6.7 59 3.8 SW 24 35 13 19 1017.6 1017.6 0.6
09/03:30pm 15.6 9.8 8.1 61 3.8 SSW 28 39 15 21 1017.5 1017.5 0.6
09/03:00pm 15.2 8.8 7.0 58 4.0 SW 30 43 16 23 1017.3 1017.3 0.6
09/02:30pm 13.8 7.2 8.6 71 2.6 SW 33 46 18 25 1017.4 1017.4 0.6
09/02:00pm 15.4 8.9 9.1 66 3.2 SSW 33 43 18 23 1017.2 1017.2 0.6
09/01:34pm 14.3 8.2 10.5 78 2.0 SW 33 52 18 28 1017.4 1017.4 0.6
09/01:30pm 13.5 6.5 8.4 71 2.5 SW 35 52 19 28 1017.5 1017.5 0.6
09/01:04pm 15.3 9.3 8.5 64 3.4 SW 30 48 16 26 1017.4 1017.4 0.4
09/01:00pm 14.6 8.8 9.4 71 2.7 SW 30 43 16 23 1017.5 1017.5 0.4
09/12:43pm 14.7 6.8 8.0 64 3.3 SW 39 61 21 33 1017.4 1017.4 0.4
09/12:30pm 16.2 8.1 6.9 54 4.6 SW 39 52 21 28 1017.3 1017.3 0.4
09/12:07pm 14.6 8.9 8.5 67 3.1 SW 28 46 15 25 1017.7 1017.7 0.4
09/12:00pm 15.0 9.2 7.8 62 3.6 SW 28 43 15 23 1017.7 1017.7 0.4
09/11:30am 15.3 8.9 9.2 67 3.1 SW 33 43 18 23 1017.7 1017.7 0.4
09/11:00am 14.4 7.4 8.6 68 2.9 SSW 35 46 19 25 1017.9 1017.9 0.4
09/10:30am 13.0 6.9 9.8 81 1.6 SW 32 52 17 28 1017.9 1017.9 0.4
09/10:14am 13.0 7.5 9.3 78 1.9 SW 28 52 15 28 1017.8 1017.8 0.4
09/10:00am 13.4 8.9 10.0 80 1.8 SW 24 32 13 17 1017.5 1017.5 0.4
09/09:55am 13.2 8.9 10.6 84 1.4 SW 24 33 13 18 1017.6 1017.6 0.4
09/09:41am 11.4 5.0 8.6 83 1.4 SW 32 61 17 33 1017.6 1017.6 0.4
09/09:37am 12.1 6.5 8.8 80 1.6 SW 28 61 15 33 1017.6 1017.6 0.2
09/09:36am 12.6 7.4 8.9 78 1.9 SW 26 61 14 33 1017.4 1017.4 0.2
09/09:30am 13.2 9.4 9.8 80 1.7 SW 20 30 11 16 1017.1 1017.1 0.2
09/09:10am 12.7 7.0 8.2 74 2.2 SW 28 52 15 28 1016.9 1016.9 0.2
09/09:00am 13.2 7.9 8.3 72 2.4 SW 26 33 14 18 1016.8 1016.8 3.0
09/08:30am 13.1 7.2 9.0 76 2.1 SW 30 43 16 23 1016.6 1016.6 3.0
09/08:07am 13.2 7.3 9.1 76 2.1 W 30 54 16 29 1016.2 1016.2 3.0
09/08:00am 11.8 5.4 9.2 84 1.3 W 33 48 18 26 1016.2 1016.2 3.0
09/07:56am 11.9 4.3 8.9 82 1.5 W 39 57 21 31 1016.1 1016.1 3.0
09/07:48am 12.7 6.0 7.4 70 2.6 WSW 32 56 17 30 1015.9 1015.9 3.0
09/07:39am 13.2 7.3 7.4 68 2.8 SW 28 46 15 25 1015.8 1015.8 3.0
09/07:30am 13.2 6.3 7.2 67 2.9 SW 33 46 18 25 1015.6 1015.6 3.0
09/07:09am 12.7 6.0 7.4 70 2.6 SW 32 50 17 27 1015.5 1015.5 3.0
09/07:00am 12.4 6.3 8.1 75 2.1 SW 30 43 16 23 1015.5 1015.5 3.0
09/06:33am 11.5 6.1 8.2 80 1.6 WSW 26 52 14 28 1015.3 1015.3 3.0
09/06:30am 11.8 7.3 8.6 81 1.6 W 22 35 12 19 1015.2 1015.2 3.0
09/06:00am 13.4 7.5 7.6 68 2.8 SW 28 48 15 26 1014.7 1014.7 2.8
09/05:30am 12.1 6.1 8.8 80 1.6 SW 30 39 16 21 1014.8 1014.8 2.8
09/05:00am 11.5 5.3 8.0 79 1.7 SW 30 46 16 25 1014.6 1014.6 2.8
09/04:39am 12.6 6.4 7.9 73 2.3 SW 30 48 16 26 1014.4 1014.4 2.6
09/04:30am 13.4 6.5 7.4 67 2.9 SW 33 46 18 25 1014.4 1014.4 2.6
09/04:00am 13.8 6.7 5.4 57 3.9 WSW 32 46 17 25 1014.3 1014.3 2.6
09/03:47am 14.2 7.9 7.3 63 3.4 WSW 30 57 16 31 1014.4 1014.4 2.6
09/03:30am 14.2 8.1 6.6 60 3.7 WSW 28 39 15 21 1014.4 1014.4 2.6
09/03:00am 14.1 8.0 6.7 61 3.6 WSW 28 37 15 20 1014.5 1014.5 2.6
09/02:30am 14.6 8.1 6.4 58 4.0 WSW 30 41 16 22 1014.8 1014.8 2.6
09/02:00am 14.3 8.1 6.2 58 3.9 WSW 28 39 15 21 1015.1 1015.1 2.6
09/01:30am 14.5 8.6 7.3 62 3.5 W 28 37 15 20 1015.2 1015.2 2.6
09/01:00am 14.6 8.7 5.9 56 4.2 WSW 26 39 14 21 1015.4 1015.4 2.6
09/12:30am 14.2 8.9 6.6 60 3.7 WSW 24 41 13 22 1015.7 1015.7 2.6
09/12:00am 14.5 9.1 8.0 65 3.2 WSW 26 33 14 18 1015.8 1015.8 2.6
 
Date/Time
WST
Temp
°C
App
Temp
°C
Dew
Point
°C
Rel
Hum
%
Delta-T
°C
Wind Press
QNH
hPa
Press
MSL
hPa
Rain since
9am
mm
Dir  Spd
km/h
Gust
km/h
Spd
kts
Gust
kts
08/11:30pm 14.4 8.7 8.4 67 3.0 WSW 28 39 15 21 1015.8 1015.8 2.6
08/11:17pm 14.5 9.0 9.3 71 2.7 WSW 28 48 15 26 1015.9 1015.9 2.6
08/11:00pm 14.4 10.0 8.8 69 2.8 WSW 22 32 12 17 1015.8 1015.8 2.6
08/10:30pm 13.4 9.7 9.6 78 1.9 SW 19 30 10 16 1015.9 1015.9 2.6
08/10:00pm 14.1 9.5 9.5 74 2.4 WSW 24 39 13 21 1016.1 1016.1 2.4
08/09:30pm 15.0 10.4 6.3 56 4.2 WSW 20 28 11 15 1016.2 1016.2 2.0
08/09:00pm 15.5 11.1 9.0 65 3.3 WSW 22 32 12 17 1016.1 1016.1 2.0
08/08:30pm 15.8 11.8 10.6 71 2.8 SW 22 33 12 18 1016.1 1016.1 2.0
08/08:00pm 15.5 10.9 9.8 69 3.0 SW 24 35 13 19 1015.7 1015.7 2.0
08/07:30pm 15.7 11.7 10.5 71 2.7 SW 22 32 12 17 1015.5 1015.5 2.0
08/07:00pm 14.8 15.3 12.7 87 1.2 WNW 2 7 1 4 1015.0 1015.0 2.0
08/06:30pm 14.9 13.2 12.4 85 1.4 WSW 13 17 7 9 1015.0 1015.0 2.0
08/06:00pm 15.2 11.4 12.5 84 1.5 SW 24 37 13 20 1014.8 1014.8 1.8
08/05:30pm 15.5 12.4 12.3 81 1.8 SW 20 28 11 15 1014.4 1014.4 1.8
08/05:00pm 15.2 10.8 12.9 86 1.3 SW 28 39 15 21 1014.1 1014.1 1.8
08/04:32pm 16.4 13.1 14.1 86 1.3 WSW 24 35 13 19 1013.9 1013.9 1.8
08/04:30pm 16.3 13.4 14.0 86 1.3 WSW 22 33 12 18 1013.9 1013.9 1.8
08/04:08pm 15.1 11.4 12.8 86 1.3 WSW 24 35 13 19 1013.9 1013.9 0.4
08/04:00pm 15.7 10.2 12.6 82 1.7 WSW 33 48 18 26 1014.0 1014.0 0.0
08/03:30pm 18.4 13.0 12.2 67 3.4 W 32 44 17 24 1013.9 1013.9 0.0
08/03:00pm 19.5 14.1 11.0 58 4.6 WNW 30 39 16 21 1013.9 1013.9 0.0
08/02:30pm 19.9 15.1 11.7 59 4.5 WNW 28 41 15 22 1014.1 1014.1 0.0
08/02:00pm 20.0 15.2 11.5 58 4.7 WNW 28 35 15 19 1014.4 1014.4 0.0
08/01:30pm 20.1 14.4 11.3 57 4.8 WNW 32 44 17 24 1014.6 1014.6 0.0
08/01:00pm 19.6 16.0 14.2 71 3.1 NW 26 32 14 17 1015.0 1015.0 0.0
08/12:30pm 19.8 15.8 14.0 69 3.3 NW 28 33 15 18 1015.7 1015.7 0.0
08/12:00pm 19.2 15.3 13.4 69 3.3 NW 26 33 14 18 1016.0 1016.0 0.0
08/11:30am 19.4 16.8 13.8 70 3.2 NW 20 30 11 16 1016.3 1016.3 0.0
08/11:00am 18.2 15.6 13.1 72 2.9 NNW 19 28 10 15 1017.0 1017.0 0.0
08/10:30am 17.9 15.3 13.2 74 2.6 NNW 19 26 10 14 1017.2 1017.2 0.0
08/10:00am 16.1 14.1 13.8 86 1.3 NNE 17 22 9 12 1017.2 1017.2 0.0
08/09:30am 14.4 11.3 12.3 87 1.1 NNE 20 24 11 13 1017.3 1017.3 0.0
08/09:00am 13.2 9.5 11.4 89 1.0 NNE 22 28 12 15 1017.3 1017.3 0.0
08/08:30am 12.2 7.9 10.8 91 0.7 NNE 24 32 13 17 1017.4 1017.4 0.0
08/08:00am 11.4 7.0 10.3 93 0.6 NNE 24 30 13 16 1017.5 1017.5 0.0
08/07:30am 10.9 6.8 10.0 94 0.5 NNE 22 28 12 15 1017.1 1017.1 0.0
08/07:00am 10.2 5.9 9.3 94 0.4 NNE 22 28 12 15 1016.9 1016.9 0.0
08/06:30am 10.3 6.6 9.4 94 0.4 NNE 19 24 10 13 1016.9 1016.9 0.0
08/06:00am 10.9 7.1 9.8 93 0.6 NNE 20 24 11 13 1016.8 1016.8 0.0
08/05:30am 11.3 7.6 10.2 93 0.6 NNE 20 26 11 14 1016.8 1016.8 0.0
08/05:00am 10.3 6.0 9.2 93 0.5 NNE 22 26 12 14 1016.7 1016.7 0.0
08/04:30am 10.8 7.0 9.7 93 0.6 NNE 20 24 11 13 1016.8 1016.8 0.0
08/04:00am 10.6 6.9 9.5 93 0.6 NNE 19 20 10 11 1017.0 1017.0 0.0
08/03:30am 10.8 7.5 9.7 93 0.6 NNE 17 20 9 11 1017.2 1017.2 0.0
08/03:00am 11.2 8.1 10.3 94 0.5 NNE 17 20 9 11 1017.1 1017.1 0.0
08/02:30am 11.5 8.9 10.6 94 0.5 NNE 15 17 8 9 1017.4 1017.4 0.0
08/02:00am 11.2 8.4 10.1 93 0.6 NNE 15 20 8 11 1017.6 1017.6 0.0
08/01:30am 11.1 7.9 10.0 93 0.6 NNE 17 20 9 11 1017.9 1017.9 0.0
08/01:00am 11.1 8.3 10.0 93 0.6 NNE 15 19 8 10 1017.9 1017.9 0.0
08/12:30am 11.5 8.8 10.4 93 0.6 NNE 15 17 8 9 1018.1 1018.1 0.0
08/12:00am 11.6 8.9 10.5 93 0.6 NNE 15 17 8 9 1018.3 1018.3 0.0
 
Date/Time
WST
Temp
°C
App
Temp
°C
Dew
Point
°C
Rel
Hum
%
Delta-T
°C
Wind Press
QNH
hPa
Press
MSL
hPa
Rain since
9am
mm
Dir  Spd
km/h
Gust
km/h
Spd
kts
Gust
kts
07/11:30pm 11.7 9.1 10.8 94 0.5 NNE 15 17 8 9 1018.5 1018.5 0.0
07/11:00pm 11.6 9.4 10.7 94 0.5 NE 13 15 7 8 1018.7 1018.7 0.0
07/10:30pm 11.2 9.2 10.1 93 0.6 NE 11 13 6 7 1018.7 1018.7 0.0
07/10:00pm 11.3 9.3 10.2 93 0.6 NNE 11 13 6 7 1018.8 1018.8 0.0
07/09:30pm 11.9 10.4 10.6 92 0.7 NE 9 11 5 6 1018.9 1018.9 0.0
07/09:00pm 11.2 9.5 10.0 92 0.6 NNE 9 11 5 6 1019.1 1019.1 0.0
07/08:30pm 11.3 10.2 10.0 92 0.7 NE 6 9 3 5 1018.8 1018.8 0.0
07/08:00pm 11.6 10.6 10.2 91 0.7 SE 6 6 3 3 1018.8 1018.8 0.0
07/07:30pm 11.8 9.8 10.2 90 0.8 E 11 11 6 6 1018.6 1018.6 0.0
07/07:00pm 12.9 12.1 11.1 89 0.9 E 6 9 3 5 1018.4 1018.4 0.0
07/06:30pm 13.8 12.6 11.7 87 1.1 E 9 11 5 6 1018.0 1018.0 0.0
07/06:00pm 15.6 14.0 12.9 84 1.5 SE 13 15 7 8 1017.9 1017.9 0.0
07/05:30pm 16.1 15.4 13.2 83 1.6 ESE 9 13 5 7 1017.7 1017.7 0.0
07/05:00pm 16.7 16.0 13.2 80 2.0 SSE 9 11 5 6 1017.6 1017.6 0.0
07/04:30pm 16.4 14.7 13.7 84 1.5 SSW 15 20 8 11 1017.7 1017.7 0.0
07/04:00pm 16.2 13.2 13.7 85 1.4 SSW 22 30 12 16 1017.5 1017.5 0.0

Other formats

Comma delimited format used in spreadsheet applications
http://www.bom.gov.au/fwo/IDW60801/IDW60801.94403.axf

JavaScript Object Notation format (JSON) in row-major order
http://www.bom.gov.au/fwo/IDW60801/IDW60801.94403.json

Data quality

Most of these data are generated automatically and are frequently updated. Quality checks on data are not normally performed. It is possible for incorrect values to appear. Refer to information at About Latest Weather Observations and please check the disclaimer before using these data.